Time;durP1;ratioP1;P1;durP2;ratioP2;P2;SDS_P1;SDS_P2;PMS_P1;PMS_P2;Temp;Humidity;BMP_temperature;BMP_pressure;BME280_temperature;BME280_humidity;BME280_pressure;Samples;Min_cycle;Max_cycle;Signal;HPM_P1;HPM_P2
2023/06/29 00:00:39;;;;;;;14.70;5.60;;;19.40;99.90;;;;;;5009036;28;20457;-73
2023/06/29 00:03:05;;;;;;;13.07;5.75;;;19.40;99.90;;;;;;5026376;28;20548;-72
2023/06/29 00:05:30;;;;;;;10.30;5.22;;;19.40;99.90;;;;;;5030043;28;20033;-73
2023/06/29 00:07:59;;;;;;;15.93;5.78;;;19.40;99.90;;;;;;5008957;28;20033;-75
2023/06/29 00:10:25;;;;;;;12.68;6.18;;;19.40;99.90;;;;;;5009064;28;20478;-75
2023/06/29 00:12:51;;;;;;;12.88;5.78;;;19.40;99.90;;;;;;5009058;28;20043;-72
2023/06/29 00:15:17;;;;;;;9.95;5.32;;;19.40;99.90;;;;;;5026961;28;20080;-74
2023/06/29 00:17:44;;;;;;;16.67;5.55;;;19.40;99.90;;;;;;5009042;28;20054;-72
2023/06/29 00:20:12;;;;;;;10.73;5.47;;;19.40;99.90;;;;;;5008936;28;20456;-74
2023/06/29 00:22:40;;;;;;;13.57;6.03;;;19.40;99.90;;;;;;5025789;28;20041;-72
2023/06/29 00:25:07;;;;;;;12.43;5.50;;;19.40;99.90;;;;;;5026391;28;20068;-72
2023/06/29 00:27:32;;;;;;;11.25;5.78;;;19.40;99.90;;;;;;5009214;28;20033;-73
2023/06/29 00:29:58;;;;;;;13.90;5.60;;;19.40;99.90;;;;;;5008842;28;20045;-74
2023/06/29 00:32:24;;;;;;;12.43;6.13;;;19.40;99.90;;;;;;5008303;28;20087;-74
2023/06/29 00:34:49;;;;;;;12.30;5.88;;;19.40;99.90;;;;;;5027526;28;20040;-72
2023/06/29 00:37:15;;;;;;;15.73;6.03;;;19.40;99.90;;;;;;5012087;28;20048;-72
2023/06/29 00:39:40;;;;;;;10.75;5.55;;;19.40;99.90;;;;;;5011740;28;20521;-73
2023/06/29 00:42:06;;;;;;;11.38;5.70;;;19.40;99.90;;;;;;5012699;28;20040;-71
2023/06/29 00:44:32;;;;;;;12.43;5.70;;;19.40;99.90;;;;;;5030824;28;20029;-73
2023/06/29 00:46:58;;;;;;;11.23;5.43;;;19.40;99.90;;;;;;5013196;28;20025;-74
2023/06/29 00:49:24;;;;;;;9.93;4.95;;;19.40;99.90;;;;;;5011836;28;20489;-74
2023/06/29 00:51:52;;;;;;;12.07;5.82;;;19.40;99.90;;;;;;5029529;28;20048;-72
2023/06/29 00:54:18;;;;;;;13.50;5.75;;;19.40;99.90;;;;;;5011416;28;20029;-72
2023/06/29 00:56:45;;;;;;;12.20;5.35;;;19.30;99.90;;;;;;5029763;28;20535;-73
2023/06/29 00:59:10;;;;;;;17.27;5.75;;;19.40;99.90;;;;;;5029783;28;20139;-74
2023/06/29 01:01:38;;;;;;;13.70;5.47;;;19.30;99.90;;;;;;5029389;28;20462;-72
2023/06/29 01:04:04;;;;;;;10.65;5.43;;;19.30;99.90;;;;;;5032207;28;20033;-73
2023/06/29 01:06:37;;;;;;;10.63;4.85;;;19.30;99.90;;;;;;5029592;28;20029;-74
2023/06/29 01:09:04;;;;;;;9.65;5.22;;;19.30;99.90;;;;;;5010893;28;20061;-72
2023/06/29 01:11:32;;;;;;;11.55;5.95;;;19.30;99.90;;;;;;5029362;28;20034;-71
2023/06/29 01:14:01;;;;;;;10.80;5.72;;;19.30;99.90;;;;;;5011111;28;20513;-73
2023/06/29 01:16:28;;;;;;;11.57;5.68;;;19.30;99.90;;;;;;5011416;28;20037;-74
2023/06/29 01:18:56;;;;;;;13.35;6.10;;;19.30;99.90;;;;;;5010705;28;20029;-72
2023/06/29 01:21:22;;;;;;;10.90;5.03;;;19.30;99.90;;;;;;5028866;28;20025;-73
2023/06/29 01:23:53;;;;;;;19.90;6.13;;;19.30;99.90;;;;;;5028093;28;20037;-73
2023/06/29 01:26:19;;;;;;;13.15;5.93;;;19.30;99.90;;;;;;5010517;28;20128;-73
2023/06/29 01:28:46;;;;;;;11.20;5.82;;;19.30;99.90;;;;;;5010394;28;20462;-73
2023/06/29 01:31:13;;;;;;;11.93;5.35;;;19.30;99.90;;;;;;5010997;28;20559;-73
2023/06/29 01:33:39;;;;;;;12.32;5.40;;;19.40;99.90;;;;;;5010764;28;20038;-73
2023/06/29 01:36:17;;;;;;;11.25;5.95;;;19.40;99.90;;;;;;5029243;28;20064;-71
2023/06/29 01:38:52;;;;;;;14.02;6.78;;;19.40;99.90;;;;;;5004443;28;20095;-74
2023/06/29 01:41:19;;;;;;;12.02;6.35;;;19.40;99.90;;;;;;5027956;28;20061;-72
2023/06/29 01:43:46;;;;;;;14.00;6.30;;;19.40;99.90;;;;;;5010396;28;20029;-71
2023/06/29 01:46:13;;;;;;;12.80;6.18;;;19.40;99.90;;;;;;5009535;28;20030;-72
2023/06/29 01:48:39;;;;;;;14.27;5.97;;;19.40;99.90;;;;;;5028491;28;20029;-72
2023/06/29 01:51:07;;;;;;;12.95;5.93;;;19.30;99.90;;;;;;5011233;28;20053;-73
2023/06/29 01:53:37;;;;;;;13.52;6.03;;;19.30;99.90;;;;;;5028654;28;20037;-72
2023/06/29 01:56:04;;;;;;;14.20;6.50;;;19.30;99.90;;;;;;5011050;28;20072;-73
2023/06/29 01:58:29;;;;;;;12.23;5.95;;;19.30;99.90;;;;;;5032817;28;20602;-73
2023/06/29 02:00:55;;;;;;;12.25;6.13;;;19.30;99.90;;;;;;5014453;28;20029;-73
2023/06/29 02:03:21;;;;;;;13.40;6.38;;;19.40;99.90;;;;;;5027947;28;20068;-73
2023/06/29 02:05:46;;;;;;;16.35;7.55;;;19.30;99.90;;;;;;5012483;28;20025;-72
2023/06/29 02:08:12;;;;;;;16.17;7.43;;;19.40;99.90;;;;;;5010762;28;20047;-73
2023/06/29 02:10:37;;;;;;;15.13;6.80;;;19.40;99.90;;;;;;5024646;28;20128;-73
2023/06/29 02:13:03;;;;;;;13.25;5.90;;;19.40;99.90;;;;;;5010352;28;20038;-72
2023/06/29 02:15:28;;;;;;;14.73;7.45;;;19.40;99.90;;;;;;5017551;28;20049;-72
2023/06/29 02:17:54;;;;;;;13.70;6.55;;;19.40;99.90;;;;;;5011384;28;20044;-72
2023/06/29 02:20:20;;;;;;;13.05;6.68;;;19.30;99.90;;;;;;5010953;28;20167;-71
2023/06/29 02:22:45;;;;;;;12.95;6.80;;;19.40;99.90;;;;;;5028450;28;20041;-72
2023/06/29 02:25:11;;;;;;;12.63;6.57;;;19.40;99.90;;;;;;5011278;28;20045;-72
2023/06/29 02:27:37;;;;;;;16.77;7.18;;;19.30;99.90;;;;;;5006503;28;20026;-72
2023/06/29 02:30:03;;;;;;;17.05;6.85;;;19.40;99.90;;;;;;5028587;28;20056;-73
2023/06/29 02:32:28;;;;;;;15.88;7.60;;;19.30;99.90;;;;;;5014165;28;20140;-73
2023/06/29 02:34:54;;;;;;;16.23;7.82;;;19.30;99.90;;;;;;5011021;28;20127;-73
2023/06/29 02:37:20;;;;;;;13.13;6.85;;;19.30;99.90;;;;;;5028033;28;20044;-73
2023/06/29 02:39:45;;;;;;;18.50;7.45;;;19.30;99.90;;;;;;5027923;28;20029;-73
2023/06/29 02:42:11;;;;;;;15.35;6.78;;;19.30;99.90;;;;;;5027387;28;20375;-73
2023/06/29 02:44:36;;;;;;;15.15;7.13;;;19.30;99.90;;;;;;5010158;28;20032;-74
2023/06/29 02:47:02;;;;;;;14.20;6.70;;;19.20;99.90;;;;;;5009742;28;20022;-75
2023/06/29 02:49:28;;;;;;;14.73;8.13;;;19.20;99.90;;;;;;5010684;28;20030;-74
2023/06/29 02:51:53;;;;;;;15.45;7.57;;;19.20;99.90;;;;;;5010297;28;20091;-72
2023/06/29 02:54:19;;;;;;;16.45;7.65;;;19.20;99.90;;;;;;5027433;28;20040;-72
2023/06/29 02:56:44;;;;;;;14.32;7.43;;;19.20;99.90;;;;;;5009204;28;20040;-72
2023/06/29 02:59:10;;;;;;;15.80;7.20;;;19.20;99.90;;;;;;5009719;28;20382;-73
2023/06/29 03:01:35;;;;;;;18.52;7.82;;;19.10;99.90;;;;;;5009193;28;20437;-73
2023/06/29 03:04:01;;;;;;;23.90;8.52;;;19.10;99.90;;;;;;5029209;28;20033;-73
2023/06/29 03:06:27;;;;;;;15.07;7.20;;;19.10;99.90;;;;;;5028547;28;20549;-74
2023/06/29 03:08:52;;;;;;;15.25;7.50;;;19.10;99.90;;;;;;5009987;28;20037;-73
2023/06/29 03:11:18;;;;;;;16.15;7.75;;;19.10;99.90;;;;;;5009291;28;20474;-73
2023/06/29 03:13:43;;;;;;;18.58;8.15;;;19.00;99.90;;;;;;5027307;28;20033;-73
2023/06/29 03:16:09;;;;;;;19.10;9.40;;;19.00;99.90;;;;;;5009150;28;20116;-73
2023/06/29 03:18:34;;;;;;;19.20;9.02;;;18.90;99.90;;;;;;5009622;28;20485;-73
2023/06/29 03:21:01;;;;;;;16.25;8.15;;;18.90;99.90;;;;;;5027416;28;20043;-72
2023/06/29 03:23:27;;;;;;;21.65;9.48;;;18.80;99.90;;;;;;5009614;28;20033;-72
2023/06/29 03:25:53;;;;;;;20.17;8.80;;;18.70;99.90;;;;;;5010771;28;20052;-72
2023/06/29 03:28:18;;;;;;;21.92;9.52;;;18.70;99.90;;;;;;5027338;28;20030;-74
2023/06/29 03:30:44;;;;;;;21.27;9.75;;;18.60;99.90;;;;;;5026889;28;20041;-72
2023/06/29 03:33:10;;;;;;;22.73;10.05;;;18.60;99.90;;;;;;5009226;28;20398;-74
2023/06/29 03:35:35;;;;;;;21.73;9.40;;;18.50;99.90;;;;;;5009185;28;20037;-73
2023/06/29 03:38:01;;;;;;;22.88;9.50;;;18.50;99.90;;;;;;5027184;28;20073;-73
2023/06/29 03:40:27;;;;;;;19.33;8.57;;;18.50;99.90;;;;;;5027042;28;20167;-74
2023/06/29 03:42:53;;;;;;;21.40;10.35;;;18.50;99.90;;;;;;5009414;28;20132;-73
2023/06/29 03:45:18;;;;;;;25.48;9.85;;;18.50;99.90;;;;;;5009398;28;20036;-73
2023/06/29 03:47:44;;;;;;;26.15;9.90;;;18.50;99.90;;;;;;5026964;28;20048;-73
2023/06/29 03:50:10;;;;;;;23.15;9.50;;;18.50;99.90;;;;;;5026925;28;20118;-72
2023/06/29 03:52:35;;;;;;;25.33;9.70;;;18.50;99.90;;;;;;5026817;28;20169;-72
2023/06/29 03:55:01;;;;;;;24.50;9.80;;;18.50;99.90;;;;;;5025713;28;20454;-74
2023/06/29 03:57:26;;;;;;;24.17;10.13;;;18.40;99.90;;;;;;5008897;28;20037;-74
2023/06/29 03:59:52;;;;;;;21.45;9.32;;;18.50;99.90;;;;;;5027567;28;20033;-73
2023/06/29 04:02:17;;;;;;;24.38;10.02;;;18.50;99.90;;;;;;5008749;28;20137;-73
2023/06/29 04:04:43;;;;;;;17.25;9.25;;;18.50;99.90;;;;;;5027636;28;20130;-73
2023/06/29 04:07:09;;;;;;;17.58;9.27;;;18.50;99.90;;;;;;5023021;28;20034;-73
2023/06/29 04:09:34;;;;;;;20.15;9.57;;;18.50;99.90;;;;;;5015187;28;20171;-72
2023/06/29 04:12:00;;;;;;;18.80;8.75;;;18.60;99.90;;;;;;5016392;28;20036;-73
2023/06/29 04:14:25;;;;;;;20.38;9.68;;;18.60;99.90;;;;;;5020185;28;20559;-74
2023/06/29 04:16:51;;;;;;;21.17;9.95;;;18.60;99.90;;;;;;5013405;28;20037;-72
2023/06/29 04:19:16;;;;;;;22.33;10.13;;;18.60;99.90;;;;;;5013402;28;20033;-72
2023/06/29 04:21:42;;;;;;;21.20;9.25;;;18.60;99.90;;;;;;5030223;28;20055;-72
2023/06/29 04:24:08;;;;;;;26.45;9.60;;;18.70;99.90;;;;;;5032935;28;20029;-73
2023/06/29 04:26:33;;;;;;;21.30;9.73;;;18.70;99.90;;;;;;5012513;28;20141;-73
2023/06/29 04:29:05;;;;;;;21.13;8.98;;;18.70;99.90;;;;;;5011783;28;20094;-73
2023/06/29 04:31:31;;;;;;;20.60;8.90;;;18.80;99.90;;;;;;5029779;28;20394;-72
2023/06/29 04:34:02;;;;;;;23.73;9.10;;;18.70;99.90;;;;;;5030310;28;20475;-72
2023/06/29 04:36:28;;;;;;;17.73;8.15;;;18.80;99.90;;;;;;5011902;28;20413;-73
2023/06/29 04:38:54;;;;;;;21.25;8.30;;;18.80;99.90;;;;;;5013747;28;20048;-73
2023/06/29 04:41:19;;;;;;;19.65;9.30;;;18.80;99.90;;;;;;5031092;28;20030;-73
2023/06/29 04:43:49;;;;;;;16.80;8.85;;;18.90;99.90;;;;;;5029455;28;20043;-73
2023/06/29 04:46:16;;;;;;;24.13;9.93;;;18.80;99.90;;;;;;5012275;28;20049;-72
2023/06/29 04:48:46;;;;;;;20.33;8.43;;;18.90;99.90;;;;;;5012017;28;20041;-72
2023/06/29 04:51:12;;;;;;;22.73;8.93;;;18.90;99.90;;;;;;5014552;28;20087;-71
2023/06/29 04:53:38;;;;;;;22.52;9.43;;;18.90;99.90;;;;;;5025088;28;20045;-73
2023/06/29 04:56:04;;;;;;;21.80;9.93;;;18.90;99.90;;;;;;5010640;28;20099;-72
2023/06/29 04:58:29;;;;;;;18.70;8.95;;;18.90;99.90;;;;;;5011074;28;20036;-75
2023/06/29 05:00:56;;;;;;;18.98;9.25;;;18.90;99.90;;;;;;5028718;28;20061;-73
2023/06/29 05:03:22;;;;;;;19.95;9.45;;;19.00;99.90;;;;;;5027409;28;20025;-74
2023/06/29 05:05:48;;;;;;;24.40;9.40;;;18.90;99.90;;;;;;5028466;28;20201;-73
2023/06/29 05:08:13;;;;;;;18.50;8.93;;;18.90;99.90;;;;;;5009966;28;20502;-72
2023/06/29 05:10:39;;;;;;;18.35;8.52;;;19.00;99.90;;;;;;5028190;28;20564;-72
2023/06/29 05:13:05;;;;;;;25.20;9.07;;;19.00;99.90;;;;;;5011915;28;20083;-74
2023/06/29 05:15:30;;;;;;;22.83;9.43;;;19.00;99.90;;;;;;5030229;28;20076;-72
2023/06/29 05:17:56;;;;;;;22.00;9.93;;;19.00;99.90;;;;;;5028948;28;20034;-72
2023/06/29 05:20:22;;;;;;;22.55;10.13;;;19.00;99.90;;;;;;5026943;28;20034;-73
2023/06/29 05:22:48;;;;;;;20.58;9.18;;;19.00;99.90;;;;;;5027376;28;20770;-72
2023/06/29 05:25:14;;;;;;;19.63;9.25;;;19.00;99.90;;;;;;5009839;28;20045;-73
2023/06/29 05:27:40;;;;;;;22.77;10.10;;;19.00;99.90;;;;;;5009721;28;20049;-73
2023/06/29 05:30:08;;;;;;;22.00;9.73;;;19.00;99.90;;;;;;5027105;28;20045;-73
2023/06/29 05:32:34;;;;;;;21.75;8.95;;;19.10;99.90;;;;;;5009582;28;20038;-73
2023/06/29 05:35:00;;;;;;;20.80;10.18;;;19.10;99.90;;;;;;5027157;28;20760;-72
2023/06/29 05:37:27;;;;;;;25.45;10.25;;;19.10;99.90;;;;;;5025044;28;20037;-72
2023/06/29 05:39:52;;;;;;;23.48;9.55;;;19.10;99.90;;;;;;5009606;28;20037;-72
2023/06/29 05:42:18;;;;;;;23.63;10.88;;;19.20;99.90;;;;;;5008891;28;20041;-72
2023/06/29 05:44:43;;;;;;;22.05;9.05;;;19.20;99.90;;;;;;5026685;28;20418;-72
2023/06/29 05:47:09;;;;;;;24.33;9.63;;;19.20;99.90;;;;;;5027035;28;20033;-72
2023/06/29 05:49:34;;;;;;;20.55;8.82;;;19.20;99.90;;;;;;5026525;28;20037;-73
2023/06/29 05:52:00;;;;;;;22.08;9.88;;;19.20;99.90;;;;;;5026742;28;20489;-72
2023/06/29 05:54:26;;;;;;;19.35;9.35;;;19.20;99.90;;;;;;5008987;28;20445;-74
2023/06/29 05:56:52;;;;;;;20.85;10.00;;;19.10;99.90;;;;;;5009853;28;20041;-74
2023/06/29 05:59:17;;;;;;;22.55;9.60;;;19.10;99.90;;;;;;5026887;28;20048;-73
2023/06/29 06:01:43;;;;;;;17.33;9.65;;;19.10;99.90;;;;;;5008486;28;20040;-72
2023/06/29 06:04:08;;;;;;;19.55;9.38;;;19.10;99.90;;;;;;5009098;28;20045;-70
2023/06/29 06:06:34;;;;;;;19.60;9.57;;;19.10;99.90;;;;;;5009498;28;20505;-72
2023/06/29 06:08:59;;;;;;;20.75;8.88;;;19.20;99.90;;;;;;5027397;28;20030;-73
2023/06/29 06:11:25;;;;;;;18.42;9.63;;;19.20;99.90;;;;;;5026751;28;20390;-73
2023/06/29 06:13:51;;;;;;;25.42;10.32;;;19.30;99.90;;;;;;5008766;28;20069;-73
2023/06/29 06:16:17;;;;;;;17.88;9.13;;;19.40;99.90;;;;;;5026405;28;20041;-73
2023/06/29 06:18:43;;;;;;;20.10;9.40;;;19.40;99.90;;;;;;5008465;28;20045;-73
2023/06/29 06:21:08;;;;;;;20.00;8.90;;;19.50;99.90;;;;;;5026662;28;20087;-73
2023/06/29 06:23:34;;;;;;;19.38;10.00;;;19.40;99.90;;;;;;5026310;28;20459;-71
2023/06/29 06:25:59;;;;;;;20.60;9.30;;;19.50;99.90;;;;;;5026749;28;20045;-72
2023/06/29 06:28:25;;;;;;;25.33;9.90;;;19.40;99.90;;;;;;5004930;28;20068;-75
2023/06/29 06:30:51;;;;;;;26.05;10.52;;;19.40;99.90;;;;;;5008983;28;20041;-73
2023/06/29 06:33:16;;;;;;;22.90;10.20;;;19.50;99.90;;;;;;5007604;28;20041;-74
2023/06/29 06:35:43;;;;;;;18.23;8.68;;;19.40;99.90;;;;;;5007749;28;20045;-74
2023/06/29 06:38:08;;;;;;;20.27;9.80;;;19.40;99.90;;;;;;5026199;28;20133;-72
2023/06/29 06:40:34;;;;;;;19.33;9.38;;;19.40;99.90;;;;;;5007510;28;20756;-73
2023/06/29 06:43:00;;;;;;;20.45;9.18;;;19.40;99.90;;;;;;5008365;28;20120;-73
2023/06/29 06:45:25;;;;;;;22.90;10.48;;;19.50;99.90;;;;;;5008061;28;20045;-72
2023/06/29 06:47:51;;;;;;;24.45;9.55;;;19.50;99.90;;;;;;5008570;28;20034;-73
2023/06/29 06:50:16;;;;;;;22.90;9.80;;;19.50;99.90;;;;;;4999707;28;20041;-71
2023/06/29 06:52:42;;;;;;;23.08;10.43;;;19.60;99.90;;;;;;5005837;28;20068;-73
2023/06/29 06:55:08;;;;;;;22.92;10.27;;;19.60;99.90;;;;;;5026255;28;20030;-72
2023/06/29 06:57:33;;;;;;;23.75;9.73;;;19.60;99.90;;;;;;5025504;28;20037;-73
2023/06/29 06:59:59;;;;;;;22.35;10.27;;;19.70;99.90;;;;;;5030823;28;20123;-72
2023/06/29 07:02:25;;;;;;;24.75;10.38;;;19.90;99.90;;;;;;5013965;28;20046;-75
2023/06/29 07:04:51;;;;;;;20.10;9.70;;;19.90;99.90;;;;;;5023868;28;20043;-73
2023/06/29 07:07:16;;;;;;;19.50;9.00;;;20.10;99.90;;;;;;5007760;28;20103;-72
2023/06/29 07:09:43;;;;;;;22.98;10.10;;;20.10;99.90;;;;;;5026115;28;20076;-73
2023/06/29 07:12:09;;;;;;;24.25;9.52;;;20.20;99.90;;;;;;5005086;28;20030;-71
2023/06/29 07:14:35;;;;;;;23.30;10.18;;;20.30;99.90;;;;;;5006754;28;20038;-71
2023/06/29 07:17:00;;;;;;;22.45;9.80;;;20.40;99.90;;;;;;5025937;28;20040;-71
2023/06/29 07:19:26;;;;;;;19.85;9.70;;;20.50;99.90;;;;;;5007981;28;20037;-72
2023/06/29 07:21:52;;;;;;;23.40;10.48;;;20.60;99.90;;;;;;5008263;28;20045;-72
2023/06/29 07:24:20;;;;;;;20.63;11.05;;;20.70;99.90;;;;;;5026012;28;20413;-72
2023/06/29 07:26:46;;;;;;;24.63;11.88;;;20.90;99.90;;;;;;5007816;28;20034;-74
2023/06/29 07:29:12;;;;;;;19.83;9.38;;;21.10;99.90;;;;;;5006276;28;20125;-72
2023/06/29 07:31:38;;;;;;;21.77;10.55;;;21.30;99.90;;;;;;5024800;28;20063;-74
2023/06/29 07:34:04;;;;;;;24.52;11.63;;;21.30;99.90;;;;;;5025235;28;20033;-74
2023/06/29 07:36:29;;;;;;;18.60;9.30;;;21.20;99.90;;;;;;5006969;28;20099;-72
2023/06/29 07:38:55;;;;;;;20.35;10.27;;;21.20;99.90;;;;;;5008156;28;20137;-73
2023/06/29 07:41:22;;;;;;;22.05;9.85;;;21.20;99.90;;;;;;5007514;28;20029;-73
2023/06/29 07:43:53;;;;;;;23.30;10.38;;;21.20;99.90;;;;;;5006073;28;20124;-72
2023/06/29 07:46:19;;;;;;;20.05;11.07;;;21.20;99.90;;;;;;5012231;28;20033;-72
2023/06/29 07:48:47;;;;;;;19.80;10.45;;;21.10;99.90;;;;;;5029677;28;20421;-72
2023/06/29 07:51:12;;;;;;;18.83;9.48;;;21.10;99.90;;;;;;5030388;28;20029;-73
2023/06/29 07:53:38;;;;;;;20.10;10.02;;;21.10;99.90;;;;;;5031580;28;20054;-72
2023/06/29 07:56:04;;;;;;;20.83;10.30;;;21.20;99.90;;;;;;5031318;28;20045;-72
2023/06/29 07:58:29;;;;;;;22.20;11.30;;;21.40;99.90;;;;;;5029164;28;20390;-72
2023/06/29 08:00:55;;;;;;;19.30;9.82;;;21.50;99.90;;;;;;5011175;28;20364;-73
2023/06/29 08:03:22;;;;;;;21.52;10.07;;;21.60;99.90;;;;;;5016099;28;20049;-72
2023/06/29 08:05:47;;;;;;;21.60;9.95;;;21.80;99.90;;;;;;5030189;28;20116;-74
2023/06/29 08:08:13;;;;;;;21.63;11.05;;;21.90;99.90;;;;;;5017066;28;20077;-72
2023/06/29 08:10:39;;;;;;;21.90;11.10;;;21.90;99.90;;;;;;5013233;28;20053;-73
2023/06/29 08:13:04;;;;;;;23.67;10.73;;;21.90;99.90;;;;;;5010676;28;20029;-74
2023/06/29 08:15:30;;;;;;;20.80;10.15;;;21.90;99.90;;;;;;5028726;28;20052;-73
2023/06/29 08:17:55;;;;;;;21.45;10.20;;;21.80;99.90;;;;;;5012387;28;20048;-72
2023/06/29 08:20:22;;;;;;;20.80;10.63;;;21.80;99.90;;;;;;5012772;28;20041;-73
2023/06/29 08:22:48;;;;;;;22.90;10.77;;;21.80;99.90;;;;;;5010800;28;20064;-73
2023/06/29 08:25:14;;;;;;;19.77;10.57;;;21.90;99.90;;;;;;5028790;28;20105;-72
2023/06/29 08:27:41;;;;;;;19.83;9.70;;;22.00;99.90;;;;;;5028423;28;20128;-73
2023/06/29 08:30:07;;;;;;;18.63;10.45;;;22.40;99.90;;;;;;5011053;28;20445;-73
2023/06/29 08:32:33;;;;;;;21.40;10.23;;;23.00;99.90;;;;;;5011596;28;20041;-72
2023/06/29 08:34:58;;;;;;;19.75;9.88;;;23.40;99.90;;;;;;5028009;28;20037;-72
2023/06/29 08:37:24;;;;;;;19.98;10.77;;;23.70;99.90;;;;;;5028088;28;20033;-73
2023/06/29 08:39:49;;;;;;;19.27;10.30;;;23.90;99.90;;;;;;5025720;28;20030;-73
2023/06/29 08:42:15;;;;;;;22.20;10.73;;;24.00;99.90;;;;;;5029630;28;20033;-72
2023/06/29 08:44:41;;;;;;;21.42;11.50;;;24.10;99.90;;;;;;5010182;28;20044;-72
2023/06/29 08:47:07;;;;;;;17.48;9.95;;;24.20;99.90;;;;;;5029178;28;20030;-73
2023/06/29 08:49:38;;;;;;;20.95;10.88;;;24.20;99.90;;;;;;5031018;28;20017;-73
2023/06/29 08:52:06;;;;;;;20.88;9.90;;;24.30;99.90;;;;;;5029118;28;20521;-73
2023/06/29 08:54:32;;;;;;;20.15;10.50;;;24.40;99.90;;;;;;5029603;28;20500;-73
2023/06/29 08:57:07;;;;;;;20.30;10.60;;;24.40;99.90;;;;;;5029728;28;20120;-73
2023/06/29 08:59:33;;;;;;;22.20;10.93;;;24.40;99.90;;;;;;5011156;28;20109;-73
2023/06/29 09:01:59;;;;;;;19.90;11.30;;;24.50;99.90;;;;;;5011648;28;20486;-73
2023/06/29 09:04:25;;;;;;;22.58;10.48;;;24.50;99.90;;;;;;5032613;28;20021;-73
2023/06/29 09:06:55;;;;;;;17.75;9.60;;;24.40;99.90;;;;;;5011381;28;20038;-72
2023/06/29 09:09:22;;;;;;;18.83;10.23;;;24.50;99.90;;;;;;5029429;28;20842;-74
2023/06/29 09:11:48;;;;;;;17.90;9.75;;;24.60;99.90;;;;;;5011341;28;20065;-73
2023/06/29 09:14:14;;;;;;;18.50;10.43;;;24.70;99.90;;;;;;5006060;28;20088;-72
2023/06/29 09:16:54;;;;;;;19.00;10.73;;;24.60;99.90;;;;;;5028735;28;20149;-72
2023/06/29 09:19:20;;;;;;;;;;;24.50;99.90;;;;;;5028482;28;20044;-73
2023/06/29 09:21:47;;;;;;;20.83;9.85;;;24.20;99.90;;;;;;5010837;28;19921;-74
2023/06/29 09:24:14;;;;;;;19.27;10.35;;;24.10;99.90;;;;;;5009866;28;20043;-73
2023/06/29 09:26:40;;;;;;;17.48;10.27;;;24.00;99.90;;;;;;5010997;28;20080;-72
2023/06/29 09:29:05;;;;;;;19.33;10.43;;;24.00;99.90;;;;;;5008333;28;20428;-72
2023/06/29 09:31:35;;;;;;;18.67;9.18;;;23.90;99.90;;;;;;5005402;28;20042;-72
2023/06/29 09:34:21;;;;;;;17.10;9.38;;;23.90;99.90;;;;;;5011290;28;20501;-72
2023/06/29 09:36:48;;;;;;;15.65;8.65;;;23.90;99.90;;;;;;5005735;28;20041;-73
2023/06/29 09:39:13;;;;;;;18.00;9.52;;;23.90;99.90;;;;;;5014746;28;20084;-72
2023/06/29 09:41:49;;;;;;;17.92;8.55;;;23.80;99.90;;;;;;5014331;28;20037;-73
2023/06/29 09:44:21;;;;;;;19.13;9.00;;;23.70;99.90;;;;;;5027812;28;20509;-74
2023/06/29 09:47:08;;;;;;;14.57;8.57;;;23.70;99.90;;;;;;5027647;28;20037;-74
2023/06/29 09:49:48;;;;;;;16.80;8.95;;;23.70;99.90;;;;;;5025719;28;20029;-74
2023/06/29 09:52:15;;;;;;;16.75;8.73;;;23.70;99.90;;;;;;5009976;28;20037;-72
2023/06/29 09:54:41;;;;;;;15.05;8.38;;;23.80;99.90;;;;;;5027593;28;20466;-72
2023/06/29 09:57:10;;;;;;;15.75;8.48;;;23.90;99.90;;;;;;5010011;28;20033;-74
2023/06/29 09:59:37;;;;;;;17.20;9.52;;;24.10;99.90;;;;;;5006962;28;20043;-74
2023/06/29 10:02:03;;;;;;;18.58;8.25;;;24.20;99.90;;;;;;5009499;28;20098;-73
2023/06/29 10:04:29;;;;;;;14.50;8.93;;;24.40;99.90;;;;;;5010445;28;20110;-74
2023/06/29 10:07:16;;;;;;;18.17;9.32;;;24.60;99.90;;;;;;5028052;28;20025;-72
2023/06/29 10:09:46;;;;;;;17.92;9.00;;;24.60;99.90;;;;;;5009414;28;20092;-74
2023/06/29 10:12:12;;;;;;;18.05;9.02;;;24.80;99.90;;;;;;5024212;28;20026;-73
2023/06/29 10:14:41;;;;;;;19.60;8.55;;;25.00;99.90;;;;;;5009640;28;20552;-73
2023/06/29 10:17:11;;;;;;;18.08;9.73;;;25.00;99.90;;;;;;5027434;28;20063;-73
2023/06/29 10:19:38;;;;;;;15.10;9.25;;;25.20;99.90;;;;;;5009097;28;20045;-73
2023/06/29 10:22:07;;;;;;;17.25;9.10;;;25.40;99.90;;;;;;5009259;28;20079;-74
2023/06/29 10:24:49;;;;;;;16.63;9.13;;;25.60;99.90;;;;;;5027031;28;20071;-73
2023/06/29 10:27:17;;;;;;;16.40;9.35;;;25.80;99.90;;;;;;5027423;28;20029;-74
2023/06/29 10:29:47;;;;;;;18.00;8.88;;;25.80;99.90;;;;;;5027461;28;20393;-72
2023/06/29 10:32:29;;;;;;;;;;;25.60;99.90;;;;;;5009310;28;20128;-72
2023/06/29 10:35:13;;;;;;;17.70;9.23;;;25.30;99.90;;;;;;5025626;28;20373;-73
2023/06/29 10:37:41;;;;;;;23.70;9.60;;;25.10;99.90;;;;;;5006038;28;20398;-73
2023/06/29 10:40:10;;;;;;;16.58;8.88;;;24.90;99.90;;;;;;5027658;28;20052;-72
2023/06/29 10:42:38;;;;;;;14.10;7.88;;;24.80;99.90;;;;;;5009044;28;20063;-71
2023/06/29 10:45:24;;;;;;;16.20;8.15;;;24.90;99.90;;;;;;5027079;28;20041;-74
2023/06/29 10:47:56;;;;;;;16.48;8.60;;;25.00;99.90;;;;;;5012360;28;20037;-72
2023/06/29 10:50:25;;;;;;;12.80;6.65;;;24.90;99.90;;;;;;5009903;28;20034;-73
2023/06/29 10:52:51;;;;;;;13.43;7.47;;;25.00;99.90;;;;;;5009791;28;20045;-73
2023/06/29 10:55:19;;;;;;;15.52;8.65;;;25.00;99.90;;;;;;5027456;28;20037;-73
2023/06/29 10:57:52;;;;;;;11.88;7.07;;;25.00;99.90;;;;;;5027318;28;20522;-73
2023/06/29 11:00:18;;;;;;;14.32;7.07;;;25.40;99.90;;;;;;5009872;28;20490;-74
2023/06/29 11:02:46;;;;;;;17.15;7.25;;;25.70;99.90;;;;;;5009721;28;20030;-73
2023/06/29 11:05:16;;;;;;;14.73;8.38;;;25.80;99.90;;;;;;5029592;28;20113;-73
2023/06/29 11:07:43;;;;;;;13.75;7.20;;;25.80;99.90;;;;;;5028275;28;20616;-73
2023/06/29 11:10:10;;;;;;;14.05;7.68;;;25.70;99.90;;;;;;5033117;28;20552;-73
2023/06/29 11:12:39;;;;;;;14.25;8.00;;;25.60;99.90;;;;;;5017097;28;20480;-73
2023/06/29 11:15:15;;;;;;;15.45;7.85;;;25.40;99.90;;;;;;5028765;28;20117;-74
2023/06/29 11:17:45;;;;;;;12.45;6.72;;;25.10;99.90;;;;;;5024267;28;20469;-73
2023/06/29 11:20:13;;;;;;;12.75;7.20;;;24.70;99.90;;;;;;5027118;28;20114;-73
2023/06/29 11:22:39;;;;;;;12.23;7.00;;;24.40;99.90;;;;;;5009111;28;20580;-73
2023/06/29 11:25:07;;;;;;;14.82;7.00;;;24.20;99.90;;;;;;5027432;28;20490;-74
2023/06/29 11:27:32;;;;;;;14.82;6.82;;;24.00;99.90;;;;;;5027344;28;20037;-73
2023/06/29 11:29:58;;;;;;;12.15;5.75;;;23.80;99.90;;;;;;5027678;28;20041;-72
2023/06/29 11:32:26;;;;;;;9.85;6.25;;;23.60;99.90;;;;;;5009554;28;20099;-73
2023/06/29 11:35:02;;;;;;;15.02;7.32;;;23.50;99.90;;;;;;5027698;28;20040;-74
2023/06/29 11:37:29;;;;;;;13.35;6.68;;;23.30;99.90;;;;;;5026866;28;20117;-74
2023/06/29 11:39:54;;;;;;;13.35;6.57;;;23.30;99.90;;;;;;5027583;28;20036;-73
2023/06/29 11:42:22;;;;;;;10.82;5.85;;;23.30;99.90;;;;;;5027017;28;20029;-73
2023/06/29 11:45:09;;;;;;;11.38;5.40;;;23.40;99.90;;;;;;5009416;28;20117;-73
2023/06/29 11:47:38;;;;;;;13.65;5.68;;;23.50;99.90;;;;;;5036065;28;20390;-74
2023/06/29 11:50:07;;;;;;;12.13;5.77;;;23.70;99.90;;;;;;5027217;28;20033;-71
2023/06/29 11:52:34;;;;;;;9.33;4.80;;;24.00;99.90;;;;;;5009374;28;20033;-74
2023/06/29 11:55:04;;;;;;;9.30;4.32;;;24.20;99.90;;;;;;5027832;28;20128;-74
2023/06/29 11:57:36;;;;;;;9.30;4.85;;;24.50;99.90;;;;;;5027363;28;20060;-74
2023/06/29 12:00:06;;;;;;;9.50;4.50;;;24.60;99.90;;;;;;5009213;28;20025;-73
2023/06/29 12:02:33;;;;;;;10.77;5.35;;;24.50;99.90;;;;;;5026910;28;20518;-73
2023/06/29 12:05:03;;;;;;;9.88;4.40;;;24.40;99.90;;;;;;5011897;28;20482;-72
2023/06/29 12:07:46;;;;;;;9.00;5.30;;;24.20;99.90;;;;;;5027264;28;20098;-73
2023/06/29 12:10:22;;;;;;;10.38;4.80;;;23.90;99.90;;;;;;5028988;28;20034;-72
2023/06/29 12:12:55;;;;;;;11.75;5.15;;;23.60;99.90;;;;;;5017282;28;20064;-74
2023/06/29 12:15:23;;;;;;;8.93;4.22;;;23.50;99.90;;;;;;5017304;28;20040;-75
2023/06/29 12:17:53;;;;;;;10.15;5.43;;;23.40;99.90;;;;;;5020440;28;20037;-73
2023/06/29 12:20:20;;;;;;;10.40;5.00;;;23.30;99.90;;;;;;5031234;28;20026;-74
2023/06/29 12:22:53;;;;;;;9.02;4.70;;;23.40;99.90;;;;;;5027219;28;20041;-72
2023/06/29 12:25:20;;;;;;;9.43;4.40;;;23.50;99.90;;;;;;5009435;28;20430;-74
2023/06/29 12:27:47;;;;;;;8.40;4.47;;;23.50;99.90;;;;;;5026928;28;20040;-73
2023/06/29 12:30:15;;;;;;;9.05;4.32;;;23.60;99.90;;;;;;5009063;28;20029;-73
2023/06/29 12:32:50;;;;;;;11.02;5.03;;;23.60;99.90;;;;;;5012529;28;20033;-74
2023/06/29 12:35:18;;;;;;;10.55;4.70;;;23.80;99.90;;;;;;5012461;28;20128;-73